Estación Meteorológica Peña el Pijo (Robertgarden) [ 12/14/19 08:41:33 CET ]

Fecha Hora Presion(HPa) Temp (°C) Humedad % Rocio (°C) Viento ( m/s) Direccion Lluvia 1Hora(mm) Lluvia 24H(mm) LLuvia Total(mm)
2019-Nov-19 01:01:28 1005.900 -0.4 82 -3.1       1.03 31.59
2019-Nov-19 02:01:48 1005.600 -1.1 83 -3.6         31.59
2019-Nov-19 03:04:14 1005.400 -1.2 85 -3.4         31.59
2019-Nov-19 04:01:35 1005.400 -1.4 85 -3.6         31.59
2019-Nov-19 05:01:39 1005.300 -1.6 86 -3.6         31.59
2019-Nov-19 06:01:56 1005.300 -1.6 86 -3.6         31.59
2019-Nov-19 07:01:47 1005.600 -2.1 86 -4.1         31.59
2019-Nov-19 08:01:45 1005.800 -2.1 87 -4.0         31.59
2019-Nov-19 09:01:50 1005.900 -0.6 87 -2.5         31.59
2019-Nov-19 10:01:50 1006.200 4.4 84 1.9         31.59
2019-Nov-19 11:01:40 1006.100 6.5 74 2.2         31.59
2019-Nov-19 12:01:33 1005.900 8.1 65 1.7         31.59
2019-Nov-19 13:01:32 1004.800 9.5 54 0.6         31.59
2019-Nov-19 14:01:39 1004.100 11.3 48 0.7         31.59
2019-Nov-19 15:01:44 1003.400 11.6 46 0.3         31.59
2019-Nov-19 16:01:48 1003.400 10.6 45 -0.9         31.59
2019-Nov-19 17:01:36 1003.400 8.2 52 -1.1         31.59
2019-Nov-19 18:01:49 1003.600 6.1 60 -1.1         31.59
2019-Nov-19 19:01:44 1004.100 4.1 65 -1.9         31.59
2019-Nov-19 20:01:47 1004.200 2.6 70 -2.3         31.59
2019-Nov-19 21:01:41 1004.000 1.5 75 -2.5         31.59
2019-Nov-19 22:01:54 1004.000 1.1 78 -2.4         31.59
2019-Nov-19 23:01:41 1004.100 0.4 79 -2.8         31.59

Temperatura Máxima:11°    Temperatura Mínima:-2°
Presión Máxima:1006.200 Hpa    Presión Mínima:1003.400 Hpa


Volver